Time;durP1;ratioP1;P1;durP2;ratioP2;P2;SDS_P1;SDS_P2;PMS_P1;PMS_P2;Temp;Humidity;BMP_temperature;BMP_pressure;BME280_temperature;BME280_humidity;BME280_pressure;Samples;Min_cycle;Max_cycle;Signal;HPM_P1;HPM_P2
2021/11/17 02:27:12;;;;;;;56.35;17.98;;;;;;;-7.59;100.00;102553.92;1440344;99;21174;-82
2021/11/17 02:29:55;;;;;;;50.10;18.02;;;;;;;-7.60;100.00;102562.72;1448544;98;21199;-82
2021/11/17 02:32:30;;;;;;;48.38;18.27;;;;;;;-7.63;100.00;102554.58;1480131;93;21173;-82
2021/11/17 02:35:28;;;;;;;60.33;19.52;;;;;;;-7.63;100.00;102548.52;1551038;91;21062;-82
2021/11/17 02:38:23;;;;;;;133.35;36.42;;;;;;;-7.64;100.00;102553.39;1583007;90;21128;-82
2021/11/17 02:41:12;;;;;;;100.40;30.65;;;;;;;-7.69;100.00;102550.19;1504134;94;21598;-82
2021/11/17 02:44:09;;;;;;;61.25;21.85;;;;;;;-7.71;100.00;102548.97;1504045;94;21073;-82
2021/11/17 02:47:10;;;;;;;69.47;22.27;;;;;;;-7.72;100.00;102551.22;1504271;95;21157;-82
2021/11/17 02:50:16;;;;;;;56.40;19.10;;;;;;;-7.71;100.00;102551.58;1504899;94;20989;-82
2021/11/17 02:53:20;;;;;;;72.87;22.30;;;;;;;-7.70;100.00;102544.13;1531330;93;21610;-82
2021/11/17 02:56:17;;;;;;;53.75;19.05;;;;;;;-7.69;100.00;102545.80;1498943;94;21017;-81
2021/11/17 02:58:51;;;;;;;55.50;20.08;;;;;;;-7.69;100.00;102542.34;1496322;95;22345;-82
2021/11/17 03:01:31;;;;;;;60.45;18.92;;;;;;;-7.68;100.00;102538.31;1521394;93;21161;-82
2021/11/17 03:04:05;;;;;;;59.05;20.15;;;;;;;-7.67;100.00;102533.94;1521332;92;21097;-81
2021/11/17 03:07:25;;;;;;;53.48;21.57;;;;;;;-7.66;100.00;102539.54;1521441;93;21129;-81
2021/11/17 03:10:21;;;;;;;61.88;22.67;;;;;;;-7.65;100.00;102533.36;1521304;93;21089;-80
2021/11/17 03:12:55;;;;;;;62.40;21.50;;;;;;;-7.68;100.00;102540.09;1532200;93;21160;-82
2021/11/17 03:15:35;;;;;;;55.38;19.70;;;;;;;-7.67;100.00;102535.25;1530793;93;21095;-82
2021/11/17 03:18:15;;;;;;;52.58;18.12;;;;;;;-7.70;100.00;102532.34;1534852;92;21445;-81
2021/11/17 03:21:17;;;;;;;47.35;17.77;;;;;;;-7.70;100.00;102527.11;1535052;93;21179;-81
2021/11/17 03:24:13;;;;;;;52.10;17.87;;;;;;;-7.70;100.00;102526.28;1535864;93;21106;-81
2021/11/17 03:27:21;;;;;;;45.73;16.82;;;;;;;-7.70;100.00;102527.59;1535824;92;21139;-81
2021/11/17 03:30:21;;;;;;;47.73;17.12;;;;;;;-7.78;100.00;102534.11;1555853;90;21340;-81
2021/11/17 03:32:58;;;;;;;49.42;17.50;;;;;;;-7.85;100.00;102534.11;1546990;92;21008;-81
2021/11/17 03:35:48;;;;;;;47.27;16.65;;;;;;;-7.87;100.00;102534.66;1548385;92;21108;-81
2021/11/17 03:38:42;;;;;;;52.03;17.82;;;;;;;-7.89;100.00;102536.52;1538408;92;21174;-81
2021/11/17 03:41:44;;;;;;;48.10;17.35;;;;;;;-7.88;100.00;102534.30;1533832;92;37590;-81
2021/11/17 03:44:31;;;;;;;50.95;17.05;;;;;;;-7.88;100.00;102532.98;1503160;95;21165;-81
2021/11/17 03:47:08;;;;;;;53.20;16.95;;;;;;;-7.91;100.00;102525.33;1503914;95;21094;-81
2021/11/17 03:49:45;;;;;;;59.35;19.65;;;;;;;-7.94;100.00;102528.56;1501602;95;21240;-81
2021/11/17 03:52:25;;;;;;;50.28;17.70;;;;;;;-7.94;100.00;102519.41;1502430;95;21130;-81
2021/11/17 03:55:06;;;;;;;51.55;15.83;;;;;;;-7.97;100.00;102517.84;1501413;95;21149;-82
2021/11/17 03:58:15;;;;;;;49.53;16.20;;;;;;;-7.99;100.00;102527.55;1498467;95;21263;-81
2021/11/17 04:01:01;;;;;;;55.40;16.52;;;;;;;-8.00;100.00;102516.25;1503298;94;21578;-81
2021/11/17 04:04:06;;;;;;;51.73;16.50;;;;;;;-8.01;100.00;102516.33;1478253;96;21304;-81
2021/11/17 04:07:11;;;;;;;39.30;15.43;;;;;;;-8.03;100.00;102517.73;1477761;96;21160;-81
2021/11/17 04:09:51;;;;;;;44.88;15.60;;;;;;;-8.04;100.00;102514.73;1490911;95;21247;-82
2021/11/17 04:12:59;;;;;;;43.68;15.00;;;;;;;-8.06;100.00;102519.23;1488037;95;21173;-81
2021/11/17 04:15:49;;;;;;;35.68;14.07;;;;;;;-8.06;100.00;102517.92;1490942;95;21095;-82
2021/11/17 04:18:32;;;;;;;45.55;14.80;;;;;;;-8.05;100.00;102526.13;1491018;95;21114;-81
2021/11/17 04:21:13;;;;;;;42.88;15.98;;;;;;;-8.04;100.00;102516.03;1485611;95;21114;-81
2021/11/17 04:24:06;;;;;;;52.17;17.85;;;;;;;-8.05;100.00;102523.98;1485220;95;21121;-80
2021/11/17 04:27:05;;;;;;;56.10;20.12;;;;;;;-8.05;100.00;102521.37;1489377;95;21602;-81
2021/11/17 04:29:58;;;;;;;62.45;21.30;;;;;;;-8.05;100.00;102521.37;1529204;91;21121;-81
2021/11/17 04:32:35;;;;;;;55.30;19.32;;;;;;;-8.05;100.00;102520.90;1523521;94;21164;-81
2021/11/17 04:35:33;;;;;;;52.53;19.87;;;;;;;-8.05;100.00;102527.44;1520983;93;21070;-82
2021/11/17 04:38:20;;;;;;;59.45;20.92;;;;;;;-8.04;100.00;102533.03;1518020;94;21102;-82
2021/11/17 04:41:19;;;;;;;60.30;22.15;;;;;;;-8.05;100.00;102528.75;1514472;94;21287;-82
2021/11/17 04:44:24;;;;;;;62.48;22.62;;;;;;;-8.05;100.00;102522.21;1511559;94;21155;-82
2021/11/17 04:47:26;;;;;;;53.23;17.73;;;;;;;-8.06;100.00;102524.46;1514316;94;21679;-81
2021/11/17 04:50:16;;;;;;;56.50;18.92;;;;;;;-8.07;100.00;102525.37;1514547;94;21242;-81
2021/11/17 04:53:13;;;;;;;59.35;20.30;;;;;;;-8.07;100.00;102520.61;1513341;94;21177;-82
2021/11/17 04:55:43;;;;;;;60.90;20.12;;;;;;;-8.07;100.00;102517.53;1511076;94;21599;-82
2021/11/17 04:58:45;;;;;;;65.87;21.33;;;;;;;-8.05;100.00;102521.37;1523771;91;21113;-81
2021/11/17 05:01:41;;;;;;;67.78;22.45;;;;;;;-8.04;100.00;102521.27;1551365;91;21665;-82
2021/11/17 05:04:18;;;;;;;74.40;24.87;;;;;;;-8.01;100.00;102509.78;1551761;92;21635;-81
2021/11/17 05:06:58;;;;;;;76.30;25.57;;;;;;;-7.97;100.00;102511.75;1535642;92;21148;-81
2021/11/17 05:09:38;;;;;;;74.20;24.12;;;;;;;-7.90;100.00;102508.68;1546986;90;21120;-81
2021/11/17 05:12:18;;;;;;;75.03;26.17;;;;;;;-7.84;100.00;102510.92;1558393;92;21711;-81
2021/11/17 05:15:12;;;;;;;85.12;25.77;;;;;;;-7.78;100.00;102509.25;1530344;93;21109;-82
2021/11/17 05:18:14;;;;;;;83.35;24.65;;;;;;;-7.70;100.00;102510.10;1533418;92;21145;-82
2021/11/17 05:21:10;;;;;;;94.25;31.62;;;;;;;-7.65;100.00;102508.02;1530757;93;21061;-82
2021/11/17 05:24:16;;;;;;;84.58;27.87;;;;;;;-7.60;100.00;102511.20;1501006;95;21615;-82
2021/11/17 05:26:50;;;;;;;76.05;26.65;;;;;;;-7.53;100.00;102503.81;1501041;95;21634;-82
2021/11/17 05:29:34;;;;;;;74.77;25.45;;;;;;;-7.44;100.00;102499.34;1501166;95;21120;-82
2021/11/17 05:32:14;;;;;;;70.50;23.60;;;;;;;-7.30;100.00;102505.01;1413356;101;21125;-81
2021/11/17 05:34:45;;;;;;;66.53;21.82;;;;;;;-7.07;100.00;102506.19;1413454;100;21212;-82
2021/11/17 05:37:29;;;;;;;61.33;21.52;;;;;;;-6.86;100.00;102502.66;1415805;100;21306;-82
2021/11/17 05:40:07;;;;;;;75.28;21.07;;;;;;;-6.60;100.00;102504.91;1408170;101;21646;-83
2021/11/17 05:43:14;;;;;;;73.80;22.85;;;;;;;-6.22;100.00;102502.84;1403902;100;21157;-83
2021/11/17 05:46:10;;;;;;;73.60;23.22;;;;;;;-5.53;100.00;102512.06;1416362;100;21667;-83
2021/11/17 05:48:50;;;;;;;75.28;23.05;;;;;;;-5.31;100.00;102511.38;1411992;100;21172;-83
2021/11/17 05:51:30;;;;;;;77.12;23.87;;;;;;;-4.37;100.00;102508.54;1420318;99;21166;-83
2021/11/17 05:54:23;;;;;;;70.70;22.02;;;;;;;-2.92;100.00;102508.72;1428069;99;21224;-83
2021/11/17 05:57:17;;;;;;;;;;;;;;;-1.38;100.00;102510.75;1423277;99;21179;-83
2021/11/17 06:00:08;;;;;;;67.75;22.45;;;;;;;0.00;100.00;102504.94;1441817;95;20685;-83
2021/11/17 06:03:22;;;;;;;64.95;22.58;;;;;;;1.31;100.00;102498.57;1491321;95;21108;-83
2021/11/17 06:05:47;;;;;;;71.60;23.30;;;;;;;1.98;100.00;102505.11;1460713;96;21692;-84
2021/11/17 06:08:13;;;;;;;85.72;27.00;;;;;;;1.89;100.00;102505.22;1483734;90;20939;-84
2021/11/17 06:10:45;;;;;;;93.05;29.48;;;;;;;2.43;100.00;102498.72;1568351;90;20891;-85
2021/11/17 06:13:14;;;;;;;70.60;25.17;;;;;;;3.50;100.00;102499.86;1576644;90;21551;-84
2021/11/17 06:15:43;;;;;;;75.57;26.50;;;;;;;4.11;100.00;102494.97;1563134;90;20895;-85
2021/11/17 06:18:12;;;;;;;76.75;26.07;;;;;;;4.87;96.34;102496.20;1570765;90;21182;-85
2021/11/17 06:20:39;;;;;;;76.67;25.70;;;;;;;6.08;89.94;102491.98;1542911;91;21135;-85
2021/11/17 06:23:11;;;;;;;80.40;28.38;;;;;;;6.94;78.35;102492.29;1569602;90;21050;-85
2021/11/17 06:25:40;;;;;;;75.50;26.57;;;;;;;7.72;77.38;102489.26;1445986;98;21127;-85
2021/11/17 06:28:08;;;;;;;86.55;26.77;;;;;;;8.70;65.90;102483.90;1446350;99;21149;-85
2021/11/17 06:30:39;;;;;;;86.65;26.73;;;;;;;9.83;65.23;102497.06;1456744;98;21835;-85
2021/11/17 06:33:08;;;;;;;87.62;27.00;;;;;;;10.59;57.71;102491.64;1432607;99;21403;-85
2021/11/17 06:35:35;;;;;;;78.45;27.45;;;;;;;11.20;53.24;102491.66;1443314;98;21163;-85
2021/11/17 06:38:04;;;;;;;80.35;27.20;;;;;;;11.76;52.67;102489.48;1432463;100;21078;-86
2021/11/17 06:40:30;;;;;;;91.55;27.42;;;;;;;12.38;49.28;102490.39;1425633;99;21146;-85
2021/11/17 06:42:59;;;;;;;80.77;26.93;;;;;;;13.15;48.31;102486.59;1413381;100;21358;-87
2021/11/17 06:45:36;;;;;;;66.62;26.80;;;;;;;13.62;47.54;102484.02;1412985;101;21227;-86
2021/11/17 06:48:02;;;;;;;65.90;23.80;;;;;;;14.04;45.61;102481.21;1428721;100;21186;-86
2021/11/17 06:50:28;;;;;;;75.90;27.45;;;;;;;14.33;44.14;102475.06;1428826;100;21507;-85
2021/11/17 06:52:54;;;;;;;82.65;29.52;;;;;;;15.22;43.76;102478.19;1428611;100;21134;-84
2021/11/17 06:55:20;;;;;;;83.65;31.60;;;;;;;16.27;42.93;102468.97;1432705;100;21146;-84
2021/11/17 06:57:47;;;;;;;86.82;31.75;;;;;;;16.50;39.35;102461.92;1459322;97;20981;-84
2021/11/17 07:00:20;;;;;;;87.55;28.87;;;;;;;16.63;38.27;102461.25;1459342;97;21219;-84
2021/11/17 07:02:46;;;;;;;72.30;28.50;;;;;;;16.42;37.08;102441.13;1492976;94;21183;-84
2021/11/17 07:05:13;;;;;;;84.62;30.50;;;;;;;16.76;37.27;102462.23;1503363;95;21672;-84
2021/11/17 07:07:40;;;;;;;94.65;32.08;;;;;;;16.68;36.23;102460.77;1503336;95;21158;-84
2021/11/17 07:10:10;;;;;;;96.00;30.97;;;;;;;16.95;36.09;102459.45;1503114;95;21165;-85
2021/11/17 07:12:37;;;;;;;89.37;29.75;;;;;;;17.40;35.93;102449.23;1503160;95;21013;-85
2021/11/17 07:15:04;;;;;;;67.22;28.23;;;;;;;18.11;35.30;102449.73;1503272;95;21074;-84
2021/11/17 07:17:30;;;;;;;71.87;25.90;;;;;;;17.94;34.28;102450.45;1503101;95;21046;-85
2021/11/17 07:19:56;;;;;;;77.37;27.93;;;;;;;18.33;34.54;102444.12;1502850;95;21898;-86
2021/11/17 07:22:22;;;;;;;69.07;27.25;;;;;;;19.04;32.98;102440.78;1515013;92;21083;-85
2021/11/17 07:24:48;;;;;;;76.65;28.25;;;;;;;19.43;33.77;102440.79;1537088;92;20953;-85
2021/11/17 07:27:23;;;;;;;81.20;26.82;;;;;;;19.54;32.54;102436.96;1537081;92;20933;-84
2021/11/17 07:29:53;;;;;;;72.12;27.73;;;;;;;20.19;33.04;102436.55;1556960;89;21520;-84
2021/11/17 07:32:21;;;;;;;58.98;25.15;;;;;;;19.93;30.96;102437.18;1547769;92;22017;-85
2021/11/17 07:34:47;;;;;;;42.55;21.73;;;;;;;19.42;30.80;102443.27;1547770;92;20966;-85
2021/11/17 07:37:13;;;;;;;41.02;18.60;;;;;;;19.05;31.07;102439.68;1517280;94;21113;-84
2021/11/17 07:39:39;;;;;;;39.88;18.75;;;;;;;19.31;31.33;102434.23;1492411;95;21023;-85
2021/11/17 07:42:06;;;;;;;37.40;19.05;;;;;;;19.77;30.68;102441.06;1504211;94;21503;-85
2021/11/17 07:44:32;;;;;;;38.90;19.52;;;;;;;19.88;30.44;102439.95;1504267;95;21146;-85
2021/11/17 07:46:58;;;;;;;39.48;20.27;;;;;;;19.95;30.59;102431.45;1504182;95;21804;-85
2021/11/17 07:49:27;;;;;;;39.45;20.35;;;;;;;19.77;30.44;102434.23;1504090;95;21131;-86
2021/11/17 07:51:55;;;;;;;51.18;20.43;;;;;;;20.11;29.89;102434.94;1504251;95;21115;-86
2021/11/17 07:54:24;;;;;;;49.63;20.23;;;;;;;20.00;29.79;102436.91;1503855;95;21075;-86
2021/11/17 07:56:51;;;;;;;51.75;20.45;;;;;;;19.68;29.30;102439.44;1504005;93;21694;-86
2021/11/17 07:59:22;;;;;;;67.85;23.22;;;;;;;20.13;30.77;102436.30;1504133;95;21151;-85
2021/11/17 08:01:50;;;;;;;64.30;23.18;;;;;;;20.78;29.54;102436.29;1504080;95;21738;-85
2021/11/17 08:04:19;;;;;;;50.92;22.45;;;;;;;20.32;28.61;102432.38;1504180;94;21100;-86
2021/11/17 08:06:45;;;;;;;41.28;19.90;;;;;;;19.92;29.42;102434.19;1490317;95;21030;-86
2021/11/17 08:09:14;;;;;;;36.35;19.40;;;;;;;20.35;29.12;102431.85;1473008;97;21329;-86
2021/11/17 08:11:42;;;;;;;39.45;20.00;;;;;;;19.44;28.69;102438.32;1473002;97;21186;-86
2021/11/17 08:16:39;;;;;;;30.70;17.80;;;;;;;19.70;29.29;102434.48;1424629;100;21117;-85
2021/11/17 08:19:05;;;;;;;40.05;17.55;;;;;;;20.03;30.47;102436.35;1424230;100;21116;-86
2021/11/17 08:21:34;;;;;;;37.28;18.52;;;;;;;19.00;29.08;102435.59;1424528;100;21428;-86
2021/11/17 08:24:01;;;;;;;36.90;17.60;;;;;;;16.72;30.15;102434.67;1424752;100;21733;-86
2021/11/17 08:26:27;;;;;;;38.65;18.02;;;;;;;14.65;32.64;102447.00;1424766;100;21082;-86
2021/11/17 08:28:53;;;;;;;32.58;14.40;;;;;;;12.54;34.32;102432.16;1431996;98;21138;-87
2021/11/17 08:31:21;;;;;;;43.15;17.20;;;;;;;10.52;37.37;102437.75;1442793;98;21154;-86
2021/11/17 08:33:48;;;;;;;43.17;17.30;;;;;;;9.40;39.58;102430.17;1443128;98;21222;-86
2021/11/17 08:36:14;;;;;;;39.05;16.00;;;;;;;8.51;41.26;102429.87;1430760;99;20990;-87
2021/11/17 08:38:41;;;;;;;43.45;16.67;;;;;;;7.49;43.18;102423.74;1423055;99;21010;-87
2021/11/17 08:41:11;;;;;;;41.75;16.05;;;;;;;6.46;45.37;102432.47;1429832;100;21105;-87
2021/11/17 08:43:39;;;;;;;42.85;16.85;;;;;;;5.59;47.94;102427.72;1423046;100;21661;-87
2021/11/17 08:46:05;;;;;;;57.05;17.15;;;;;;;5.05;51.25;102421.63;1429978;99;21967;-87
2021/11/17 08:48:35;;;;;;;60.20;18.75;;;;;;;4.70;53.85;102417.17;1422966;100;21121;-87
2021/11/17 08:51:05;;;;;;;58.38;17.92;;;;;;;4.54;58.72;102418.11;1429954;100;21613;-86
2021/11/17 08:53:34;;;;;;;54.60;17.07;;;;;;;4.38;65.24;102419.50;1423009;100;21175;-87
2021/11/17 08:56:06;;;;;;;52.43;16.12;;;;;;;4.10;69.54;102415.95;1426232;99;21691;-87
2021/11/17 08:58:33;;;;;;;49.88;17.48;;;;;;;3.81;74.29;102421.86;1442618;99;21240;-88
2021/11/17 09:01:03;;;;;;;48.58;14.87;;;;;;;3.61;78.09;102412.87;1442453;99;21017;-87
2021/11/17 09:03:29;;;;;;;44.33;15.10;;;;;;;3.34;83.37;102407.91;1442101;98;21127;-88
2021/11/17 09:05:59;;;;;;;42.70;13.88;;;;;;;3.26;89.45;102405.23;1442709;99;21057;-87
2021/11/17 09:08:28;;;;;;;37.42;13.65;;;;;;;3.25;89.93;102401.75;1442629;98;21095;-87
2021/11/17 09:10:59;;;;;;;44.03;14.00;;;;;;;3.19;92.01;102405.91;1427821;99;21116;-88
2021/11/17 09:13:26;;;;;;;34.08;13.62;;;;;;;2.99;93.13;102402.40;1437161;97;21184;-86
2021/11/17 09:15:55;;;;;;;34.15;12.13;;;;;;;2.89;96.58;102389.25;1504428;94;21098;-87
2021/11/17 09:18:25;;;;;;;35.90;12.95;;;;;;;2.73;94.68;102397.52;1479399;96;21305;-86
2021/11/17 09:20:54;;;;;;;45.90;14.87;;;;;;;2.66;99.04;102390.36;1504427;94;21147;-87
2021/11/17 09:23:21;;;;;;;31.80;12.80;;;;;;;2.68;100.00;102385.22;1484449;95;21152;-86
2021/11/17 09:25:48;;;;;;;49.67;14.95;;;;;;;2.69;100.00;102386.05;1460327;98;21138;-87
2021/11/17 09:28:14;;;;;;;39.70;13.93;;;;;;;2.66;99.12;102381.88;1504221;94;21147;-87
2021/11/17 09:30:42;;;;;;;30.62;12.53;;;;;;;2.57;100.00;102376.70;1484599;95;21088;-87
2021/11/17 09:33:11;;;;;;;39.35;12.58;;;;;;;2.50;99.81;102385.84;1514060;91;21009;-87
2021/11/17 09:35:39;;;;;;;33.67;13.60;;;;;;;2.48;100.00;102387.83;1571314;91;21876;-87
2021/11/17 09:38:08;;;;;;;34.55;13.65;;;;;;;2.44;100.00;102381.14;1571282;91;21125;-87
2021/11/17 09:40:39;;;;;;;36.73;13.80;;;;;;;2.46;100.00;102380.49;1571171;91;21029;-87
2021/11/17 09:43:10;;;;;;;29.27;11.45;;;;;;;2.56;100.00;102368.38;1569211;91;21505;-86
2021/11/17 09:45:38;;;;;;;33.83;13.53;;;;;;;2.57;100.00;102368.72;1571310;91;21644;-87
2021/11/17 09:48:05;;;;;;;34.13;12.20;;;;;;;2.59;100.00;102356.92;1571315;90;21214;-87
2021/11/17 09:50:43;;;;;;;34.63;11.95;;;;;;;2.64;100.00;102357.24;1571077;91;21545;-87
2021/11/17 09:53:20;;;;;;;25.68;9.35;;;;;;;2.68;100.00;102357.27;1571055;91;21085;-87
2021/11/17 09:56:01;;;;;;;24.32;9.05;;;;;;;2.65;98.27;102355.44;1571149;91;21013;-86
2021/11/17 09:58:38;;;;;;;26.15;8.68;;;;;;;2.58;96.78;102351.75;1527368;92;21693;-86
2021/11/17 10:01:12;;;;;;;27.52;9.90;;;;;;;2.62;98.00;102345.95;1525571;92;21223;-87
2021/11/17 10:03:46;;;;;;;21.97;9.18;;;;;;;2.63;97.90;102340.95;1525294;92;21788;-87
2021/11/17 10:12:09;;;;;;;28.00;10.40;;;;;;;2.68;97.83;102339.97;1557646;89;21232;-86
2021/11/17 10:14:42;;;;;;;26.50;7.72;;;;;;;2.70;98.07;102335.29;1554806;90;21123;-87
2021/11/17 10:17:43;;;;;;;21.87;9.00;;;;;;;2.78;96.76;102334.98;1562762;91;21601;-87
2021/11/17 10:20:31;;;;;;;21.07;7.53;;;;;;;2.79;93.33;102328.15;1562747;91;21274;-87
2021/11/17 10:23:18;;;;;;;23.30;8.73;;;;;;;2.77;92.35;102335.99;1508043;94;21651;-87
2021/11/17 10:26:08;;;;;;;21.30;8.30;;;;;;;2.75;90.39;102339.31;1528406;92;21110;-87
2021/11/17 10:29:10;;;;;;;21.33;7.35;;;;;;;2.78;89.52;102334.98;1506943;93;21160;-88
2021/11/17 10:31:54;;;;;;;24.10;8.40;;;;;;;2.81;87.70;102335.48;1484054;95;21104;-87
2021/11/17 10:34:34;;;;;;;21.05;7.58;;;;;;;2.87;87.62;102331.33;1479573;96;21383;-87
2021/11/17 10:37:17;;;;;;;24.15;8.75;;;;;;;2.89;84.29;102334.66;1407426;101;21295;-87
2021/11/17 10:39:50;;;;;;;20.12;7.53;;;;;;;2.91;84.37;102325.99;1405428;101;21193;-86
2021/11/17 10:42:24;;;;;;;22.30;8.93;;;;;;;2.92;84.05;102321.84;1407849;101;21979;-87
2021/11/17 10:44:59;;;;;;;24.40;8.93;;;;;;;2.94;84.91;102326.52;1407699;101;22350;-87
2021/11/17 10:47:30;;;;;;;25.32;9.63;;;;;;;2.90;84.65;102311.03;1407928;101;21193;-87
2021/11/17 10:50:16;;;;;;;19.82;6.90;;;;;;;3.04;84.21;102322.84;1407792;101;21688;-87
2021/11/17 10:53:14;;;;;;;22.35;6.80;;;;;;;3.06;78.80;102327.02;1395141;101;21797;-87
2021/11/17 10:55:48;;;;;;;22.00;7.28;;;;;;;3.10;77.73;102322.17;1407480;99;21742;-87
2021/11/17 10:58:21;;;;;;;23.90;7.58;;;;;;;3.11;76.48;102323.83;1414954;99;21657;-87
2021/11/17 11:01:13;;;;;;;23.25;7.28;;;;;;;3.14;75.40;102324.83;1405642;100;21112;-87
2021/11/17 11:03:42;;;;;;;21.10;7.22;;;;;;;3.19;76.22;102321.16;1404364;102;21057;-87
2021/11/17 11:06:13;;;;;;;27.80;8.25;;;;;;;3.20;73.94;102309.50;1405561;101;21199;-87
2021/11/17 11:08:56;;;;;;;28.40;9.15;;;;;;;3.21;74.99;102311.66;1399559;101;21598;-87
2021/11/17 11:11:22;;;;;;;20.72;7.72;;;;;;;3.23;74.87;102315.00;1396188;101;21114;-88
2021/11/17 11:14:08;;;;;;;27.40;8.10;;;;;;;3.26;77.36;102313.33;1397131;102;21688;-87
2021/11/17 11:16:55;;;;;;;20.40;7.92;;;;;;;3.28;78.13;102308.16;1381711;102;21160;-87
2021/11/17 11:19:25;;;;;;;22.02;7.75;;;;;;;3.32;78.21;102305.98;1370949;102;21187;-87
2021/11/17 11:21:59;;;;;;;30.70;7.83;;;;;;;3.34;77.52;102300.00;1368928;104;21725;-87
2021/11/17 11:24:30;;;;;;;25.55;8.38;;;;;;;3.35;77.83;102304.31;1386988;103;21235;-87
2021/11/17 11:27:01;;;;;;;19.07;7.22;;;;;;;3.37;77.25;102298.33;1383573;102;21181;-87
2021/11/17 11:29:33;;;;;;;23.92;6.95;;;;;;;3.38;75.36;102307.49;1383650;103;21107;-87
2021/11/17 11:32:20;;;;;;;21.35;7.33;;;;;;;3.39;73.95;102299.00;1393961;101;21702;-87
2021/11/17 11:35:09;;;;;;;27.73;6.97;;;;;;;3.41;74.67;102293.83;1463877;97;22057;-87
2021/11/17 11:37:40;;;;;;;22.25;7.33;;;;;;;3.42;75.35;102297.33;1466679;97;21153;-88
2021/11/17 11:40:20;;;;;;;29.12;8.23;;;;;;;3.43;76.34;102288.31;1466795;97;21118;-88
2021/11/17 11:43:10;;;;;;;29.12;7.83;;;;;;;3.45;77.19;102292.98;1466651;97;21122;-87
2021/11/17 11:45:41;;;;;;;20.88;7.80;;;;;;;3.48;78.48;102291.81;1466679;97;21122;-88
2021/11/17 11:48:25;;;;;;;25.35;7.53;;;;;;;3.51;77.46;102290.97;1396891;102;21208;-88
2021/11/17 11:50:57;;;;;;;;;;;;;;;3.52;76.32;102291.28;1421805;99;21194;-88
2021/11/17 11:53:31;;;;;;;22.50;7.33;;;;;;;3.54;76.24;102293.79;1426267;98;20201;-87
2021/11/17 11:56:02;;;;;;;27.00;7.22;;;;;;;3.55;74.82;102290.11;1456335;98;21088;-88
2021/11/17 11:58:36;;;;;;;30.72;7.97;;;;;;;3.55;73.88;102293.61;1492500;94;21124;-87
2021/11/17 12:01:19;;;;;;;26.57;7.72;;;;;;;3.53;73.31;102296.11;1501047;94;21243;-87
2021/11/17 12:03:56;;;;;;;17.77;6.90;;;;;;;3.54;73.10;102290.63;1502263;94;21014;-88
2021/11/17 12:06:43;;;;;;;25.23;7.58;;;;;;;3.52;73.50;102283.29;1494848;95;21148;-88
2021/11/17 12:09:21;;;;;;;23.60;7.05;;;;;;;3.52;73.76;102286.45;1521156;93;21067;-87
2021/11/17 12:12:02;;;;;;;21.05;6.55;;;;;;;3.53;73.21;102281.45;1537341;93;21127;-88
2021/11/17 12:14:47;;;;;;;20.97;6.62;;;;;;;3.52;73.28;102275.80;1537215;93;21193;-88
2021/11/17 12:17:19;;;;;;;24.43;8.15;;;;;;;3.52;73.51;102266.47;1537206;93;21060;-88
2021/11/17 12:19:53;;;;;;;23.30;8.10;;;;;;;3.51;74.05;102266.16;1478906;97;21189;-87
2021/11/17 12:22:43;;;;;;;23.65;7.42;;;;;;;3.50;73.74;102264.00;1489614;96;21297;-88
2021/11/17 12:25:29;;;;;;;26.85;7.55;;;;;;;3.49;73.88;102259.64;1489209;96;21006;-87
2021/11/17 12:28:00;;;;;;;21.35;8.50;;;;;;;3.52;73.26;102262.47;1465374;96;21163;-88
2021/11/17 12:30:52;;;;;;;28.90;10.25;;;;;;;3.48;73.21;102251.33;1465196;96;21129;-91
2021/11/17 12:33:23;;;;;;;24.87;8.58;;;;;;;3.48;73.45;102248.67;1455777;97;21137;-88
2021/11/17 12:36:12;;;;;;;26.20;8.75;;;;;;;3.47;74.42;102244.34;1382205;103;21163;-89
2021/11/17 12:38:39;;;;;;;32.40;9.33;;;;;;;3.44;74.67;102241.17;1334425;107;21172;-88
2021/11/17 12:41:25;;;;;;;26.50;8.38;;;;;;;3.39;75.21;102236.38;1343538;106;21307;-89
2021/11/17 12:44:22;;;;;;;23.45;7.72;;;;;;;3.38;75.65;102235.55;1356991;104;21073;-88
2021/11/17 12:47:12;;;;;;;23.92;8.28;;;;;;;3.36;76.58;102239.38;1342123;106;21695;-89
2021/11/17 12:49:55;;;;;;;28.12;9.13;;;;;;;3.24;76.56;102222.11;1354066;106;22346;-89
2021/11/17 12:52:29;;;;;;;27.62;9.53;;;;;;;3.33;76.51;102239.22;1359156;103;21179;-89
2021/11/17 12:55:16;;;;;;;28.35;8.80;;;;;;;3.28;76.26;102240.23;1353738;106;21190;-89
2021/11/17 12:57:57;;;;;;;34.25;11.83;;;;;;;3.27;76.16;102233.75;1366826;104;21151;-88
2021/11/17 13:00:34;;;;;;;27.90;10.45;;;;;;;3.23;76.21;102241.23;1355122;104;22440;-88
2021/11/17 13:03:05;;;;;;;32.08;10.68;;;;;;;3.21;76.24;102240.59;1357681;105;21192;-87
2021/11/17 13:05:39;;;;;;;36.93;11.65;;;;;;;3.17;76.56;102244.07;1348799;106;21142;-87
2021/11/17 13:08:10;;;;;;;36.25;11.50;;;;;;;3.14;76.49;102243.08;1349866;106;21271;-87
2021/11/17 13:10:51;;;;;;;28.77;10.55;;;;;;;3.08;76.83;102238.44;1352871;106;22463;-87
2021/11/17 13:13:24;;;;;;;33.83;11.18;;;;;;;3.03;77.60;102235.47;1352933;106;21647;-87
2021/11/17 13:16:20;;;;;;;30.92;11.93;;;;;;;2.98;78.08;102232.48;1345713;106;21155;-87
2021/11/17 13:18:54;;;;;;;34.92;13.40;;;;;;;2.93;79.24;102232.97;1313520;107;21163;-87
2021/11/17 13:21:31;;;;;;;45.67;14.93;;;;;;;2.80;79.97;102235.33;1310637;108;21413;-87
2021/11/17 13:24:03;;;;;;;39.40;14.83;;;;;;;2.76;80.70;102235.81;1313364;107;21206;-87
2021/11/17 13:29:34;;;;;;;48.60;15.28;;;;;;;2.68;81.53;102246.81;1345919;105;21139;-85
2021/11/17 13:32:17;;;;;;;37.10;14.43;;;;;;;2.64;82.08;102237.98;1362736;105;21168;-86
2021/11/17 13:34:54;;;;;;;46.83;14.50;;;;;;;2.55;81.78;102245.13;1363279;105;27078;-85
2021/11/17 13:37:37;;;;;;;39.92;13.13;;;;;;;2.39;82.28;102239.31;1386230;103;21191;-85
2021/11/17 13:40:17;;;;;;;47.40;12.00;;;;;;;2.18;82.44;102241.13;1386717;102;21193;-86
2021/11/17 13:42:45;;;;;;;38.65;12.98;;;;;;;1.99;84.11;102241.39;1387406;102;21638;-86
2021/11/17 13:45:17;;;;;;;35.78;12.18;;;;;;;1.83;84.82;102240.86;1387440;102;21158;-86
2021/11/17 13:47:44;;;;;;;35.50;11.48;;;;;;;1.67;85.97;102247.44;1387680;103;21214;-86
2021/11/17 13:50:12;;;;;;;35.60;11.93;;;;;;;1.49;87.21;102244.36;1376024;102;21130;-86
2021/11/17 13:52:42;;;;;;;44.38;12.28;;;;;;;1.31;88.97;102244.45;1353379;106;21162;-85
2021/11/17 13:55:17;;;;;;;37.70;13.93;;;;;;;1.18;88.91;102248.50;1395392;98;21141;-86
2021/11/17 13:57:45;;;;;;;42.93;12.43;;;;;;;0.99;91.17;102241.09;1426542;99;21784;-85
2021/11/17 14:00:15;;;;;;;36.15;12.05;;;;;;;0.83;92.99;102239.67;1446114;99;21179;-85
2021/11/17 14:02:50;;;;;;;53.38;13.70;;;;;;;0.70;93.83;102239.23;1445726;98;21190;-86
2021/11/17 14:08:01;;;;;;;41.18;12.47;;;;;;;0.31;95.58;102213.05;1392662;101;21177;-86
2021/11/17 14:10:48;;;;;;;;;;;;;;;;;;;;;
2021/11/17 14:50:04;;;;;;;;;;;;;;;;;;;;;
2021/11/17 14:52:25;;;;;;;49.33;16.30;;;;;;;-1.85;100.00;102221.91;1202287;116;21246;-84
2021/11/17 15:02:44;;;;;;;48.90;16.05;;;;;;;-2.09;100.00;102239.47;1198641;117;21309;-85
2021/11/17 15:05:19;;;;;;;42.38;13.93;;;;;;;-2.20;100.00;102242.70;1242046;114;21740;-86
2021/11/17 15:07:46;;;;;;;42.88;14.00;;;;;;;-2.28;100.00;102236.77;1247342;112;21330;-84
2021/11/17 15:10:20;;;;;;;44.15;15.23;;;;;;;-2.36;100.00;102243.20;1242330;114;22235;-85
2021/11/17 15:12:48;;;;;;;55.58;17.62;;;;;;;-2.41;100.00;102250.67;1308982;107;21246;-85
2021/11/17 15:18:00;;;;;;;39.90;14.40;;;;;;;-2.56;100.00;102244.92;1242527;113;21644;-84
2021/11/17 15:20:38;;;;;;;50.95;16.48;;;;;;;-2.62;100.00;102244.14;1228830;115;21199;-86
2021/11/17 15:23:10;;;;;;;54.00;17.70;;;;;;;-2.66;100.00;102245.38;1227934;114;21221;-84
2021/11/17 15:25:43;;;;;;;43.80;15.48;;;;;;;-2.70;100.00;102239.54;1219628;115;21750;-84
2021/11/17 15:37:58;;;;;;;69.60;22.82;;;;;;;-2.93;100.00;102235.39;1208321;117;21203;-84